createdAt,value
2022-08-18T00:01:19.380Z,0
2022-08-18T00:04:12.408Z,0
2022-08-18T00:07:09.796Z,0
2022-08-18T00:10:18.735Z,0
2022-08-18T00:13:10.216Z,0
2022-08-18T00:16:10.461Z,0
2022-08-18T00:19:10.675Z,0
2022-08-18T00:22:14.858Z,0
2022-08-18T00:25:06.079Z,0
2022-08-18T00:28:11.321Z,0
2022-08-18T00:31:06.516Z,0
2022-08-18T00:34:06.737Z,0
2022-08-18T00:37:06.945Z,0
2022-08-18T00:40:07.287Z,0
2022-08-18T00:43:07.386Z,0
2022-08-18T00:46:07.608Z,0
2022-08-18T00:49:07.813Z,0
2022-08-18T00:52:08.063Z,0
2022-08-18T00:55:08.283Z,0
2022-08-18T00:58:08.508Z,0
2022-08-18T01:01:08.797Z,0
2022-08-18T01:04:08.936Z,0
2022-08-18T01:07:09.176Z,0
2022-08-18T01:10:09.384Z,0
2022-08-18T01:13:09.601Z,0
2022-08-18T01:16:09.820Z,0
2022-08-18T01:19:10.031Z,0
2022-08-18T01:22:10.299Z,0
2022-08-18T01:25:10.499Z,0
2022-08-18T01:28:10.699Z,0
2022-08-18T01:31:05.890Z,0
2022-08-18T01:34:11.142Z,0
2022-08-18T01:37:06.325Z,0
2022-08-18T01:41:22.006Z,0
2022-08-18T01:43:06.768Z,0
2022-08-18T01:46:07.009Z,0
2022-08-18T01:49:07.212Z,0
2022-08-18T01:52:07.465Z,0
2022-08-18T01:55:07.672Z,0
2022-08-18T01:58:07.900Z,0
2022-08-18T02:01:08.099Z,0
2022-08-18T02:04:33.861Z,0
2022-08-18T02:07:08.611Z,0
2022-08-18T02:10:11.923Z,0
2022-08-18T02:13:08.992Z,0
2022-08-18T02:16:09.193Z,0
2022-08-18T02:19:09.413Z,0
2022-08-18T02:22:09.649Z,0
2022-08-18T02:25:09.851Z,0
2022-08-18T02:28:10.086Z,0
2022-08-18T02:31:11.353Z,0
2022-08-18T02:34:10.549Z,0
2022-08-18T02:37:14.885Z,0
2022-08-18T02:40:05.964Z,0
2022-08-18T02:43:06.198Z,0
2022-08-18T02:46:06.369Z,0
2022-08-18T02:49:06.581Z,0
2022-08-18T02:52:06.807Z,0
2022-08-18T02:55:07.028Z,0
2022-08-18T02:58:07.252Z,0
2022-08-18T03:01:07.476Z,0
2022-08-18T03:04:07.679Z,0
2022-08-18T03:07:07.888Z,0
2022-08-18T03:10:31.694Z,0
2022-08-18T03:13:13.344Z,0
2022-08-18T03:16:08.577Z,0
2022-08-18T03:19:08.794Z,0
2022-08-18T03:22:27.159Z,0
2022-08-18T03:25:09.228Z,0
2022-08-18T03:28:09.451Z,0
2022-08-18T03:31:09.660Z,0
2022-08-18T03:34:09.916Z,0
2022-08-18T03:37:10.100Z,0
2022-08-18T03:40:10.383Z,0
2022-08-18T03:43:49.466Z,0
2022-08-18T03:46:05.741Z,0
2022-08-18T03:49:05.960Z,0
2022-08-18T03:52:11.200Z,0
2022-08-18T03:55:06.382Z,0
2022-08-18T03:58:06.616Z,0
2022-08-18T04:01:06.876Z,0
2022-08-18T04:04:07.039Z,0
2022-08-18T04:07:07.254Z,0
2022-08-18T04:10:07.479Z,0
2022-08-18T04:13:07.693Z,0
2022-08-18T04:16:07.932Z,0
2022-08-18T04:19:08.143Z,0.1
2022-08-18T04:22:08.394Z,0.2
2022-08-18T04:25:08.587Z,0.3
2022-08-18T04:28:08.800Z,0.4
2022-08-18T04:31:09.166Z,0.6
2022-08-18T04:34:09.266Z,0.8
2022-08-18T04:37:09.450Z,1
2022-08-18T04:40:09.759Z,1.3
2022-08-18T04:43:09.861Z,1.5
2022-08-18T04:46:10.145Z,1.7
2022-08-18T04:49:10.323Z,2
2022-08-18T04:52:37.404Z,2.3
2022-08-18T04:55:05.803Z,2.5
2022-08-18T04:58:05.999Z,2.7
2022-08-18T05:01:06.342Z,3
2022-08-18T05:04:06.493Z,3.3
2022-08-18T05:07:06.617Z,3.5
2022-08-18T05:10:06.876Z,3.7
2022-08-18T05:13:07.087Z,4.4
2022-08-18T05:16:11.601Z,5.1
2022-08-18T05:19:07.965Z,5.3
2022-08-18T05:22:07.744Z,5.6
2022-08-18T05:25:07.952Z,5.8
2022-08-18T05:28:08.154Z,6
2022-08-18T05:31:13.145Z,6.4
2022-08-18T05:34:08.779Z,6.7
2022-08-18T05:37:08.810Z,6.5
2022-08-18T05:40:11.317Z,6.1
2022-08-18T05:43:09.258Z,6.4
2022-08-18T05:46:09.571Z,6.5
2022-08-18T05:49:09.689Z,6.5
2022-08-18T05:52:09.925Z,6.5
2022-08-18T05:55:10.136Z,6.9
2022-08-18T05:58:10.358Z,6.8
2022-08-18T06:01:10.576Z,6.7
2022-08-18T06:04:10.827Z,6.6
2022-08-18T06:07:11.013Z,6.4
2022-08-18T06:10:06.222Z,6.3
2022-08-18T06:13:06.439Z,6.3
2022-08-18T06:16:06.648Z,6.3
2022-08-18T06:19:06.874Z,6
2022-08-18T06:22:07.096Z,6.2
2022-08-18T06:25:07.309Z,6.4
2022-08-18T06:28:07.544Z,6.8
2022-08-18T06:31:07.751Z,7.1
2022-08-18T06:34:07.978Z,7.5
2022-08-18T06:37:08.182Z,8
2022-08-18T06:40:08.589Z,8.6
2022-08-18T06:43:08.639Z,9
2022-08-18T06:46:08.892Z,9.2
2022-08-18T06:49:09.073Z,9.4
2022-08-18T06:52:09.327Z,9.9
2022-08-18T06:55:09.507Z,10.3
2022-08-18T06:58:09.746Z,10.8
2022-08-18T07:01:10.045Z,11.5
2022-08-18T07:04:10.175Z,12.4
2022-08-18T07:07:10.397Z,13.1
2022-08-18T07:10:10.613Z,14.3
2022-08-18T07:13:10.840Z,15.6
2022-08-18T07:16:06.018Z,16.5
2022-08-18T07:19:06.258Z,17
2022-08-18T07:22:06.461Z,17
2022-08-18T07:25:06.679Z,16.4
2022-08-18T07:28:06.882Z,15.2
2022-08-18T07:34:07.329Z,13.1
2022-08-18T07:37:07.559Z,11.5
2022-08-18T07:40:07.808Z,10.1
2022-08-18T07:43:08.067Z,9.2
2022-08-18T07:46:08.227Z,8
2022-08-18T07:49:08.458Z,7.3
2022-08-18T07:52:13.088Z,7.1
2022-08-18T07:55:09.996Z,7
2022-08-18T07:58:09.107Z,7.4
2022-08-18T08:01:09.310Z,8.2
2022-08-18T08:04:09.578Z,8.8
2022-08-18T08:07:23.797Z,9.3
2022-08-18T08:10:09.987Z,10.1
2022-08-18T08:13:10.204Z,10.3
2022-08-18T08:16:10.425Z,10.4
2022-08-18T08:19:12.188Z,10.4
2022-08-18T08:22:05.843Z,10.1
2022-08-18T08:25:17.507Z,9.6
2022-08-18T08:28:06.270Z,9.2
2022-08-18T08:31:33.331Z,9
2022-08-18T08:34:06.719Z,9.1
2022-08-18T08:37:06.948Z,9.6
2022-08-18T08:40:07.254Z,10
2022-08-18T08:43:07.377Z,10.6
2022-08-18T08:46:07.632Z,11.9
2022-08-18T08:49:07.819Z,12.9
2022-08-18T08:52:08.042Z,14.2
2022-08-18T08:55:08.275Z,15.6
2022-08-18T08:58:08.504Z,16.7
2022-08-18T09:01:08.706Z,18.1
2022-08-18T09:04:08.932Z,19.3
2022-08-18T09:07:09.163Z,20
2022-08-18T09:10:09.366Z,20.3
2022-08-18T09:13:09.597Z,21.3
2022-08-18T09:16:12.355Z,21.9
2022-08-18T09:19:10.136Z,22.6
2022-08-18T09:22:10.243Z,23.1
2022-08-18T09:25:10.460Z,23.4
2022-08-18T09:28:11.580Z,24.1
2022-08-18T09:31:08.810Z,25.2
2022-08-18T09:34:10.574Z,25.5
2022-08-18T09:37:06.322Z,25.2
2022-08-18T09:40:12.866Z,25.1
2022-08-18T09:46:06.994Z,24.9
2022-08-18T09:49:07.208Z,24.6
2022-08-18T09:52:07.444Z,24.1
2022-08-18T09:55:07.630Z,24.5
2022-08-18T09:58:07.861Z,24.7
2022-08-18T09:58:07.869Z,24.7
2022-08-18T10:01:08.109Z,25.2
2022-08-18T10:04:08.349Z,26.9
2022-08-18T10:07:08.530Z,29.8
2022-08-18T10:10:58.846Z,32.2
2022-08-18T10:13:08.972Z,33.6
2022-08-18T10:16:10.502Z,34.8
2022-08-18T10:19:09.415Z,35.9
2022-08-18T10:22:09.633Z,38.9
2022-08-18T10:25:22.550Z,43.5
2022-08-18T10:28:10.074Z,43.4
2022-08-18T10:31:10.534Z,41.6
2022-08-18T10:34:19.027Z,52.4
2022-08-18T10:37:10.726Z,70.8
2022-08-18T10:40:13.236Z,97
2022-08-18T10:43:26.978Z,99.6
2022-08-18T10:46:25.144Z,110.8
2022-08-18T10:49:06.555Z,109.3
2022-08-18T10:52:06.786Z,108.9
2022-08-18T10:55:10.096Z,108.1
2022-08-18T10:58:07.254Z,97.2
2022-08-18T11:01:07.440Z,84.1
2022-08-18T11:04:22.687Z,61.2
2022-08-18T11:07:08.280Z,59.2
2022-08-18T11:10:29.104Z,45.5
2022-08-18T11:13:10.045Z,46.2
2022-08-18T11:16:10.295Z,51.6
2022-08-18T11:19:08.756Z,56.4
2022-08-18T11:22:08.982Z,56.4
2022-08-18T11:25:09.214Z,52.1
2022-08-18T11:28:09.421Z,50.7
2022-08-18T11:31:09.640Z,51.5
2022-08-18T11:34:11.079Z,56.4
2022-08-18T11:37:10.118Z,57.4
2022-08-18T11:40:14.085Z,55.4
2022-08-18T11:43:10.529Z,52.1
2022-08-18T11:46:10.726Z,63.7
2022-08-18T11:49:05.925Z,76.4
2022-08-18T11:52:06.152Z,82.7
2022-08-18T11:55:16.760Z,83.1
2022-08-18T11:58:12.507Z,85.8
2022-08-18T12:01:06.811Z,87.1
2022-08-18T12:04:07.024Z,85.9
2022-08-18T12:07:07.276Z,90.9
2022-08-18T12:10:18.039Z,82.1
2022-08-18T12:13:07.702Z,71.2
2022-08-18T12:16:07.889Z,65.6
2022-08-18T12:19:08.143Z,65.8
2022-08-18T12:22:12.000Z,60.2
2022-08-18T12:25:12.322Z,56.1
2022-08-18T12:28:10.863Z,54.7
2022-08-18T12:31:15.034Z,50.6
2022-08-18T12:34:09.233Z,51.3
2022-08-18T12:37:42.924Z,53.2
2022-08-18T12:40:09.805Z,54.8
2022-08-18T12:43:10.465Z,53.8
2022-08-18T12:46:11.927Z,57.4
2022-08-18T12:49:10.310Z,56.7
2022-08-18T12:52:11.888Z,60.9
2022-08-18T12:52:11.944Z,60.9
2022-08-18T12:55:21.370Z,63.8
2022-08-18T12:58:10.977Z,64.3
2022-08-18T13:01:06.242Z,64.2
2022-08-18T13:04:10.795Z,64.9
2022-08-18T13:07:06.618Z,65.4
2022-08-18T13:10:06.880Z,64.8
2022-08-18T13:13:07.065Z,67.6
2022-08-18T13:16:07.294Z,63.7
2022-08-18T13:19:07.482Z,62.1
2022-08-18T13:22:07.744Z,58.2
2022-08-18T13:25:07.932Z,55.2
2022-08-18T13:28:08.186Z,51.6
2022-08-18T13:31:08.401Z,50.3
2022-08-18T13:34:11.880Z,47.8
2022-08-18T13:37:08.829Z,47
2022-08-18T13:40:09.177Z,47.4
2022-08-18T13:43:09.440Z,43.8
2022-08-18T13:46:09.839Z,41.7
2022-08-18T13:49:09.700Z,40.3
2022-08-18T13:52:16.792Z,39.6
2022-08-18T13:55:11.937Z,37.2
2022-08-18T13:58:20.217Z,34
2022-08-18T14:01:42.426Z,30.1
2022-08-18T14:04:12.493Z,31.3
2022-08-18T14:07:10.364Z,33.7
2022-08-18T14:10:13.347Z,33.2
2022-08-18T14:13:20.090Z,31.3
2022-08-18T14:16:06.659Z,29
2022-08-18T14:19:09.916Z,28.7
2022-08-18T14:22:07.094Z,28.5
2022-08-18T14:25:07.319Z,28.8
2022-08-18T14:28:18.318Z,26
2022-08-18T14:31:07.764Z,25.1
2022-08-18T14:34:07.970Z,26
2022-08-18T14:37:09.836Z,27.4
2022-08-18T14:40:12.183Z,27.2
2022-08-18T14:43:08.666Z,26.8
2022-08-18T14:46:08.892Z,26.8
2022-08-18T14:49:09.056Z,27.7
2022-08-18T14:52:13.891Z,27.5
2022-08-18T14:55:09.495Z,26.3
2022-08-18T14:58:09.699Z,24.6
2022-08-18T15:19:59.086Z,25.3
2022-08-18T15:21:42.891Z,25.3
2022-08-18T15:24:42.816Z,25.3
2022-08-18T15:27:43.434Z,25.3
2022-08-18T15:30:43.322Z,25.3
2022-08-18T15:33:42.990Z,25.3
2022-08-18T15:36:43.397Z,25.3
2022-08-18T15:45:56.261Z,25.3
2022-08-18T15:48:43.393Z,25.3
2022-08-18T15:51:45.234Z,25.3
2022-08-18T15:54:42.679Z,25.3
2022-08-18T15:57:43.442Z,25.3
2022-08-18T16:00:43.737Z,25.3
2022-08-18T16:03:43.406Z,25.3
2022-08-18T16:06:43.246Z,25.3
2022-08-18T16:09:43.478Z,25.3
